sensor_id;sensor_type;location;lat;lon;timestamp;pressure;altitude;pressure_sealevel;temperature;humidity
4814;BME280;15375;48.540;9.268;2024-02-23T00:00:00;95456.47;;;5.55;100.00
4814;BME280;15375;48.540;9.268;2024-02-23T00:02:25;95433.19;;;5.32;100.00
4814;BME280;15375;48.540;9.268;2024-02-23T00:04:51;95455.47;;;5.49;100.00
4814;BME280;15375;48.540;9.268;2024-02-23T00:07:16;95453.84;;;5.39;100.00
4814;BME280;15375;48.540;9.268;2024-02-23T00:09:41;95454.50;;;5.43;100.00
4814;BME280;15375;48.540;9.268;2024-02-23T00:12:07;95446.69;;;5.32;100.00
4814;BME280;15375;48.540;9.268;2024-02-23T00:14:33;95464.56;;;5.42;100.00
4814;BME280;15375;48.540;9.268;2024-02-23T00:17:01;95459.03;;;5.33;100.00
4814;BME280;15375;48.540;9.268;2024-02-23T00:19:27;95459.78;;;5.34;100.00
4814;BME280;15375;48.540;9.268;2024-02-23T00:21:52;95482.97;;;5.47;100.00
4814;BME280;15375;48.540;9.268;2024-02-23T00:24:18;95490.22;;;5.50;100.00
4814;BME280;15375;48.540;9.268;2024-02-23T00:26:46;95470.97;;;5.48;100.00
4814;BME280;15375;48.540;9.268;2024-02-23T00:29:11;95485.44;;;5.42;100.00
4814;BME280;15375;48.540;9.268;2024-02-23T00:31:40;95521.94;;;5.34;100.00
4814;BME280;15375;48.540;9.268;2024-02-23T00:34:06;95507.13;;;5.26;100.00
4814;BME280;15375;48.540;9.268;2024-02-23T00:36:37;95508.56;;;5.14;100.00
4814;BME280;15375;48.540;9.268;2024-02-23T00:39:03;95494.25;;;5.01;100.00
4814;BME280;15375;48.540;9.268;2024-02-23T00:41:28;95513.50;;;5.03;100.00
4814;BME280;15375;48.540;9.268;2024-02-23T00:43:53;95529.53;;;4.94;100.00
4814;BME280;15375;48.540;9.268;2024-02-23T00:46:19;95526.25;;;4.86;100.00
4814;BME280;15375;48.540;9.268;2024-02-23T00:48:44;95518.44;;;4.76;100.00
4814;BME280;15375;48.540;9.268;2024-02-23T00:51:09;95506.47;;;4.61;100.00
4814;BME280;15375;48.540;9.268;2024-02-23T00:53:35;95532.19;;;4.65;100.00
4814;BME280;15375;48.540;9.268;2024-02-23T00:56:00;95538.84;;;4.61;100.00
4814;BME280;15375;48.540;9.268;2024-02-23T00:58:25;95518.00;;;4.45;100.00
4814;BME280;15375;48.540;9.268;2024-02-23T01:00:51;95532.09;;;4.53;100.00
4814;BME280;15375;48.540;9.268;2024-02-23T01:03:16;95524.06;;;4.49;100.00
4814;BME280;15375;48.540;9.268;2024-02-23T01:05:41;95489.06;;;4.29;100.00
4814;BME280;15375;48.540;9.268;2024-02-23T01:08:07;95523.56;;;4.54;100.00
4814;BME280;15375;48.540;9.268;2024-02-23T01:10:33;95535.63;;;4.49;100.00
4814;BME280;15375;48.540;9.268;2024-02-23T01:12:58;95522.81;;;4.53;100.00
4814;BME280;15375;48.540;9.268;2024-02-23T01:15:23;95520.78;;;4.58;100.00
4814;BME280;15375;48.540;9.268;2024-02-23T01:17:49;95502.41;;;4.53;100.00
4814;BME280;15375;48.540;9.268;2024-02-23T01:20:14;95503.16;;;4.53;100.00
4814;BME280;15375;48.540;9.268;2024-02-23T01:22:39;95491.09;;;4.41;100.00
4814;BME280;15375;48.540;9.268;2024-02-23T01:25:05;95509.41;;;4.50;100.00
4814;BME280;15375;48.540;9.268;2024-02-23T01:27:30;95507.47;;;4.50;100.00
4814;BME280;15375;48.540;9.268;2024-02-23T01:29:56;95521.69;;;4.51;100.00
4814;BME280;15375;48.540;9.268;2024-02-23T01:32:22;95524.00;;;4.53;100.00
4814;BME280;15375;48.540;9.268;2024-02-23T01:34:47;95525.50;;;4.53;100.00
4814;BME280;15375;48.540;9.268;2024-02-23T01:37:12;95519.19;;;4.60;100.00
4814;BME280;15375;48.540;9.268;2024-02-23T01:39:38;95515.47;;;4.54;100.00
4814;BME280;15375;48.540;9.268;2024-02-23T01:42:04;95528.38;;;4.63;100.00
4814;BME280;15375;48.540;9.268;2024-02-23T01:44:29;95537.91;;;4.67;100.00
4814;BME280;15375;48.540;9.268;2024-02-23T01:46:55;95513.47;;;4.58;100.00
4814;BME280;15375;48.540;9.268;2024-02-23T01:49:20;95519.84;;;4.64;100.00
4814;BME280;15375;48.540;9.268;2024-02-23T01:51:48;95521.72;;;4.67;100.00
4814;BME280;15375;48.540;9.268;2024-02-23T01:54:14;95512.94;;;4.63;100.00
4814;BME280;15375;48.540;9.268;2024-02-23T01:56:39;95516.97;;;4.71;100.00
4814;BME280;15375;48.540;9.268;2024-02-23T01:59:05;95519.69;;;4.71;100.00
4814;BME280;15375;48.540;9.268;2024-02-23T02:01:31;95523.41;;;4.77;100.00
4814;BME280;15375;48.540;9.268;2024-02-23T02:03:58;95518.25;;;4.83;100.00
4814;BME280;15375;48.540;9.268;2024-02-23T02:06:24;95511.75;;;4.80;100.00
4814;BME280;15375;48.540;9.268;2024-02-23T02:08:50;95500.38;;;4.73;100.00
4814;BME280;15375;48.540;9.268;2024-02-23T02:11:15;95513.69;;;4.80;100.00
4814;BME280;15375;48.540;9.268;2024-02-23T02:13:41;95520.25;;;4.79;100.00
4814;BME280;15375;48.540;9.268;2024-02-23T02:16:06;95534.78;;;4.85;100.00
4814;BME280;15375;48.540;9.268;2024-02-23T02:18:31;95525.50;;;4.86;100.00
4814;BME280;15375;48.540;9.268;2024-02-23T02:20:57;95529.31;;;4.88;100.00
4814;BME280;15375;48.540;9.268;2024-02-23T02:23:23;95546.00;;;4.99;100.00
4814;BME280;15375;48.540;9.268;2024-02-23T02:25:55;95549.47;;;5.00;100.00
4814;BME280;15375;48.540;9.268;2024-02-23T02:28:22;95523.97;;;5.01;100.00
4814;BME280;15375;48.540;9.268;2024-02-23T02:30:48;95532.66;;;5.08;100.00
4814;BME280;15375;48.540;9.268;2024-02-23T02:33:14;95520.75;;;5.06;100.00
4814;BME280;15375;48.540;9.268;2024-02-23T02:35:39;95518.44;;;5.21;100.00
4814;BME280;15375;48.540;9.268;2024-02-23T02:38:05;95503.13;;;5.30;100.00
4814;BME280;15375;48.540;9.268;2024-02-23T02:40:30;95514.47;;;5.25;100.00
4814;BME280;15375;48.540;9.268;2024-02-23T02:42:57;95536.53;;;5.36;100.00
4814;BME280;15375;48.540;9.268;2024-02-23T02:45:22;95520.31;;;5.36;100.00
4814;BME280;15375;48.540;9.268;2024-02-23T02:47:47;95518.94;;;5.44;100.00
4814;BME280;15375;48.540;9.268;2024-02-23T02:50:13;95511.88;;;5.34;100.00
4814;BME280;15375;48.540;9.268;2024-02-23T02:52:38;95509.28;;;5.31;100.00
4814;BME280;15375;48.540;9.268;2024-02-23T02:55:04;95511.66;;;5.29;100.00
4814;BME280;15375;48.540;9.268;2024-02-23T02:57:29;95510.22;;;5.24;100.00
4814;BME280;15375;48.540;9.268;2024-02-23T02:59:55;95516.72;;;5.27;100.00
4814;BME280;15375;48.540;9.268;2024-02-23T03:02:20;95515.56;;;5.28;100.00
4814;BME280;15375;48.540;9.268;2024-02-23T03:04:49;95526.94;;;5.35;100.00
4814;BME280;15375;48.540;9.268;2024-02-23T03:07:16;95505.91;;;5.27;100.00
4814;BME280;15375;48.540;9.268;2024-02-23T03:09:41;95509.72;;;5.29;100.00
4814;BME280;15375;48.540;9.268;2024-02-23T03:12:06;95509.06;;;5.25;100.00
4814;BME280;15375;48.540;9.268;2024-02-23T03:14:32;95509.06;;;5.25;100.00
4814;BME280;15375;48.540;9.268;2024-02-23T03:16:59;95503.31;;;5.23;100.00
4814;BME280;15375;48.540;9.268;2024-02-23T03:19:24;95505.00;;;5.17;100.00
4814;BME280;15375;48.540;9.268;2024-02-23T03:21:50;95515.44;;;5.31;100.00
4814;BME280;15375;48.540;9.268;2024-02-23T03:24:16;95503.38;;;5.36;100.00
4814;BME280;15375;48.540;9.268;2024-02-23T03:26:41;95499.75;;;5.26;100.00
4814;BME280;15375;48.540;9.268;2024-02-23T03:29:07;95495.22;;;5.23;100.00
4814;BME280;15375;48.540;9.268;2024-02-23T03:31:32;95518.44;;;5.21;100.00
4814;BME280;15375;48.540;9.268;2024-02-23T03:33:57;95530.25;;;5.27;100.00
4814;BME280;15375;48.540;9.268;2024-02-23T03:36:23;95514.47;;;5.09;100.00
4814;BME280;15375;48.540;9.268;2024-02-23T03:38:48;95519.38;;;5.14;100.00
4814;BME280;15375;48.540;9.268;2024-02-23T03:41:14;95529.16;;;5.24;100.00
4814;BME280;15375;48.540;9.268;2024-02-23T03:43:39;95549.25;;;5.23;100.00
4814;BME280;15375;48.540;9.268;2024-02-23T03:46:06;95536.97;;;5.06;100.00
4814;BME280;15375;48.540;9.268;2024-02-23T03:48:31;95548.25;;;5.17;100.00
4814;BME280;15375;48.540;9.268;2024-02-23T03:50:57;95547.25;;;5.11;100.00
4814;BME280;15375;48.540;9.268;2024-02-23T03:53:23;95530.47;;;5.03;100.00
4814;BME280;15375;48.540;9.268;2024-02-23T03:55:48;95519.66;;;5.03;100.00
4814;BME280;15375;48.540;9.268;2024-02-23T03:58:14;95524.06;;;4.97;100.00
4814;BME280;15375;48.540;9.268;2024-02-23T04:00:39;95531.31;;;5.00;100.00
4814;BME280;15375;48.540;9.268;2024-02-23T04:03:04;95518.72;;;4.94;100.00
4814;BME280;15375;48.540;9.268;2024-02-23T04:05:30;95513.50;;;4.87;100.00
4814;BME280;15375;48.540;9.268;2024-02-23T04:07:55;95540.34;;;4.94;100.00
4814;BME280;15375;48.540;9.268;2024-02-23T04:10:20;95531.84;;;4.95;100.00
4814;BME280;15375;48.540;9.268;2024-02-23T04:12:46;95518.59;;;4.85;100.00
4814;BME280;15375;48.540;9.268;2024-02-23T04:15:12;95533.84;;;4.91;100.00
4814;BME280;15375;48.540;9.268;2024-02-23T04:17:37;95540.00;;;4.92;100.00
4814;BME280;15375;48.540;9.268;2024-02-23T04:20:06;95537.75;;;4.90;100.00
4814;BME280;15375;48.540;9.268;2024-02-23T04:22:32;95535.13;;;4.87;100.00
4814;BME280;15375;48.540;9.268;2024-02-23T04:24:58;95531.25;;;4.88;100.00
4814;BME280;15375;48.540;9.268;2024-02-23T04:27:23;95516.72;;;4.82;100.00
4814;BME280;15375;48.540;9.268;2024-02-23T04:29:49;95525.84;;;4.88;100.00
4814;BME280;15375;48.540;9.268;2024-02-23T04:32:14;95530.03;;;4.89;100.00
4814;BME280;15375;48.540;9.268;2024-02-23T04:34:40;95521.47;;;4.78;100.00
4814;BME280;15375;48.540;9.268;2024-02-23T04:37:06;95515.28;;;4.77;100.00
4814;BME280;15375;48.540;9.268;2024-02-23T04:39:31;95513.38;;;4.78;100.00
4814;BME280;15375;48.540;9.268;2024-02-23T04:41:57;95507.63;;;4.76;100.00
4814;BME280;15375;48.540;9.268;2024-02-23T04:44:23;95506.75;;;4.79;100.00
4814;BME280;15375;48.540;9.268;2024-02-23T04:46:48;95512.53;;;4.81;100.00
4814;BME280;15375;48.540;9.268;2024-02-23T04:49:13;95514.13;;;4.78;100.00
4814;BME280;15375;48.540;9.268;2024-02-23T04:51:39;95520.69;;;4.77;100.00
4814;BME280;15375;48.540;9.268;2024-02-23T04:54:04;95511.16;;;4.73;100.00
4814;BME280;15375;48.540;9.268;2024-02-23T04:56:30;95513.88;;;4.73;100.00
4814;BME280;15375;48.540;9.268;2024-02-23T04:58:55;95496.66;;;4.67;100.00
4814;BME280;15375;48.540;9.268;2024-02-23T05:01:20;95492.44;;;4.66;100.00
4814;BME280;15375;48.540;9.268;2024-02-23T05:03:46;95519.28;;;4.73;100.00
4814;BME280;15375;48.540;9.268;2024-02-23T05:06:11;95500.63;;;4.62;100.00
4814;BME280;15375;48.540;9.268;2024-02-23T05:08:38;95519.69;;;4.71;100.00
4814;BME280;15375;48.540;9.268;2024-02-23T05:11:03;95507.78;;;4.69;100.00
4814;BME280;15375;48.540;9.268;2024-02-23T05:13:29;95533.63;;;4.70;100.00
4814;BME280;15375;48.540;9.268;2024-02-23T05:15:55;95538.91;;;4.57;100.00
4814;BME280;15375;48.540;9.268;2024-02-23T05:18:21;95524.00;;;4.53;100.00
4814;BME280;15375;48.540;9.268;2024-02-23T05:20:46;95542.97;;;4.65;100.00
4814;BME280;15375;48.540;9.268;2024-02-23T05:23:11;95537.66;;;4.62;100.00
4814;BME280;15375;48.540;9.268;2024-02-23T05:25:37;95526.84;;;4.62;100.00
4814;BME280;15375;48.540;9.268;2024-02-23T05:28:02;95533.97;;;4.56;100.00
4814;BME280;15375;48.540;9.268;2024-02-23T05:30:28;95538.75;;;4.48;100.00
4814;BME280;15375;48.540;9.268;2024-02-23T05:32:56;95544.06;;;4.51;100.00
4814;BME280;15375;48.540;9.268;2024-02-23T05:35:22;95529.47;;;4.49;100.00
4814;BME280;15375;48.540;9.268;2024-02-23T05:37:47;95537.00;;;4.58;100.00
4814;BME280;15375;48.540;9.268;2024-02-23T05:40:13;95524.31;;;4.55;100.00
4814;BME280;15375;48.540;9.268;2024-02-23T05:42:38;95547.69;;;4.61;100.00
4814;BME280;15375;48.540;9.268;2024-02-23T05:45:06;95545.84;;;4.58;100.00
4814;BME280;15375;48.540;9.268;2024-02-23T05:47:34;95501.38;;;4.30;100.00
4814;BME280;15375;48.540;9.268;2024-02-23T05:49:59;95532.44;;;4.55;100.00
4814;BME280;15375;48.540;9.268;2024-02-23T05:52:25;95546.25;;;4.57;100.00
4814;BME280;15375;48.540;9.268;2024-02-23T05:54:50;95542.91;;;4.53;100.00
4814;BME280;15375;48.540;9.268;2024-02-23T05:57:17;95548.63;;;4.55;100.00
4814;BME280;15375;48.540;9.268;2024-02-23T05:59:42;95554.19;;;4.47;100.00
4814;BME280;15375;48.540;9.268;2024-02-23T06:02:07;95555.56;;;4.56;100.00
4814;BME280;15375;48.540;9.268;2024-02-23T06:04:33;95549.88;;;4.50;100.00
4814;BME280;15375;48.540;9.268;2024-02-23T06:06:59;95563.88;;;4.61;100.00
4814;BME280;15375;48.540;9.268;2024-02-23T06:09:24;95573.59;;;4.59;100.00
4814;BME280;15375;48.540;9.268;2024-02-23T06:11:50;95584.06;;;4.57;100.00
4814;BME280;15375;48.540;9.268;2024-02-23T06:14:15;95571.28;;;4.41;100.00
4814;BME280;15375;48.540;9.268;2024-02-23T06:16:40;95575.09;;;4.43;100.00
4814;BME280;15375;48.540;9.268;2024-02-23T06:19:06;95591.88;;;4.51;100.00
4814;BME280;15375;48.540;9.268;2024-02-23T06:21:31;95586.59;;;4.47;100.00
4814;BME280;15375;48.540;9.268;2024-02-23T06:23:57;95575.94;;;4.40;100.00
4814;BME280;15375;48.540;9.268;2024-02-23T06:26:23;95572.47;;;4.40;100.00
4814;BME280;15375;48.540;9.268;2024-02-23T06:28:48;95566.75;;;4.38;100.00
4814;BME280;15375;48.540;9.268;2024-02-23T06:31:14;95558.28;;;4.36;100.00
4814;BME280;15375;48.540;9.268;2024-02-23T06:33:39;95562.25;;;4.31;100.00
4814;BME280;15375;48.540;9.268;2024-02-23T06:36:06;95538.47;;;4.26;100.00
4814;BME280;15375;48.540;9.268;2024-02-23T06:38:31;95550.63;;;4.34;100.00
4814;BME280;15375;48.540;9.268;2024-02-23T06:40:57;95537.41;;;4.40;100.00
4814;BME280;15375;48.540;9.268;2024-02-23T06:43:22;95552.66;;;4.46;100.00
4814;BME280;15375;48.540;9.268;2024-02-23T06:45:47;95551.00;;;4.53;100.00
4814;BME280;15375;48.540;9.268;2024-02-23T06:48:13;95546.09;;;4.47;100.00
4814;BME280;15375;48.540;9.268;2024-02-23T06:50:38;95538.16;;;4.57;100.00
4814;BME280;15375;48.540;9.268;2024-02-23T06:53:04;95532.75;;;4.57;100.00
4814;BME280;15375;48.540;9.268;2024-02-23T06:55:30;95539.09;;;4.66;100.00
4814;BME280;15375;48.540;9.268;2024-02-23T06:57:55;95533.09;;;4.59;100.00
4814;BME280;15375;48.540;9.268;2024-02-23T07:00:21;95526.09;;;4.61;100.00
4814;BME280;15375;48.540;9.268;2024-02-23T07:02:47;95542.97;;;4.65;100.00
4814;BME280;15375;48.540;9.268;2024-02-23T07:05:12;95545.69;;;4.65;100.00
4814;BME280;15375;48.540;9.268;2024-02-23T07:07:38;95558.25;;;4.72;100.00
4814;BME280;15375;48.540;9.268;2024-02-23T07:10:06;95571.25;;;4.77;100.00
4814;BME280;15375;48.540;9.268;2024-02-23T07:12:31;95557.25;;;4.66;100.00
4814;BME280;15375;48.540;9.268;2024-02-23T07:14:56;95563.66;;;4.72;100.00
4814;BME280;15375;48.540;9.268;2024-02-23T07:17:22;95573.59;;;4.75;100.00
4814;BME280;15375;48.540;9.268;2024-02-23T07:19:48;95566.28;;;4.75;100.00
4814;BME280;15375;48.540;9.268;2024-02-23T07:22:13;95560.63;;;4.70;100.00
4814;BME280;15375;48.540;9.268;2024-02-23T07:24:41;95579.84;;;4.72;100.00
4814;BME280;15375;48.540;9.268;2024-02-23T07:27:08;95568.38;;;4.68;100.00
4814;BME280;15375;48.540;9.268;2024-02-23T07:29:33;95581.88;;;4.84;98.79
4814;BME280;15375;48.540;9.268;2024-02-23T07:31:58;95573.38;;;4.85;99.26
4814;BME280;15375;48.540;9.268;2024-02-23T07:34:24;95588.72;;;4.88;98.53
4814;BME280;15375;48.540;9.268;2024-02-23T07:36:53;95592.69;;;5.00;96.14
4814;BME280;15375;48.540;9.268;2024-02-23T07:39:19;95588.63;;;5.08;95.95
4814;BME280;15375;48.540;9.268;2024-02-23T07:41:44;95580.53;;;5.08;95.78
4814;BME280;15375;48.540;9.268;2024-02-23T07:44:10;95581.53;;;5.14;94.02
4814;BME280;15375;48.540;9.268;2024-02-23T07:46:35;95589.22;;;5.15;92.17
4814;BME280;15375;48.540;9.268;2024-02-23T07:49:00;95575.78;;;5.12;89.93
4814;BME280;15375;48.540;9.268;2024-02-23T07:51:26;95570.97;;;5.20;89.88
4814;BME280;15375;48.540;9.268;2024-02-23T07:53:51;95573.81;;;5.29;91.67
4814;BME280;15375;48.540;9.268;2024-02-23T07:56:16;95576.00;;;5.34;91.37
4814;BME280;15375;48.540;9.268;2024-02-23T07:58:42;95579.91;;;5.33;96.91
4814;BME280;15375;48.540;9.268;2024-02-23T08:01:08;95569.78;;;5.21;93.47
4814;BME280;15375;48.540;9.268;2024-02-23T08:03:33;95570.00;;;5.26;94.09
4814;BME280;15375;48.540;9.268;2024-02-23T08:05:58;95566.47;;;5.29;94.67
4814;BME280;15375;48.540;9.268;2024-02-23T08:08:24;95565.44;;;5.39;93.66
4814;BME280;15375;48.540;9.268;2024-02-23T08:10:50;95569.75;;;5.37;91.27
4814;BME280;15375;48.540;9.268;2024-02-23T08:13:16;95571.28;;;5.38;91.54
4814;BME280;15375;48.540;9.268;2024-02-23T08:15:43;95578.56;;;5.25;90.94
4814;BME280;15375;48.540;9.268;2024-02-23T08:18:08;95581.00;;;5.19;91.08
4814;BME280;15375;48.540;9.268;2024-02-23T08:20:33;95580.34;;;5.15;92.00
4814;BME280;15375;48.540;9.268;2024-02-23T08:22:59;95584.72;;;5.25;90.46
4814;BME280;15375;48.540;9.268;2024-02-23T08:25:24;95584.97;;;5.31;87.63
4814;BME280;15375;48.540;9.268;2024-02-23T08:27:49;95583.59;;;5.39;85.59
4814;BME280;15375;48.540;9.268;2024-02-23T08:30:15;95587.97;;;5.49;84.14
4814;BME280;15375;48.540;9.268;2024-02-23T08:32:41;95581.94;;;5.57;85.39
4814;BME280;15375;48.540;9.268;2024-02-23T08:35:06;95577.19;;;5.61;85.82
4814;BME280;15375;48.540;9.268;2024-02-23T08:37:33;95588.81;;;5.74;83.87
4814;BME280;15375;48.540;9.268;2024-02-23T08:39:58;95588.41;;;5.76;82.99
4814;BME280;15375;48.540;9.268;2024-02-23T08:42:24;95575.81;;;5.69;82.07
4814;BME280;15375;48.540;9.268;2024-02-23T08:44:49;95585.88;;;5.69;82.02
4814;BME280;15375;48.540;9.268;2024-02-23T08:47:15;95586.44;;;5.76;83.08
4814;BME280;15375;48.540;9.268;2024-02-23T08:49:40;95580.88;;;5.84;82.98
4814;BME280;15375;48.540;9.268;2024-02-23T08:52:06;95582.66;;;5.74;83.18
4814;BME280;15375;48.540;9.268;2024-02-23T08:54:31;95588.75;;;5.78;83.47
4814;BME280;15375;48.540;9.268;2024-02-23T08:56:57;95593.31;;;5.81;83.78
4814;BME280;15375;48.540;9.268;2024-02-23T08:59:22;95588.31;;;5.79;83.89
4814;BME280;15375;48.540;9.268;2024-02-23T09:01:47;95586.13;;;5.74;85.37
4814;BME280;15375;48.540;9.268;2024-02-23T09:04:13;95586.56;;;5.73;86.71
4814;BME280;15375;48.540;9.268;2024-02-23T09:06:38;95593.78;;;5.63;87.94
4814;BME280;15375;48.540;9.268;2024-02-23T09:09:04;95593.66;;;5.67;87.39
4814;BME280;15375;48.540;9.268;2024-02-23T09:11:29;95589.53;;;5.62;88.99
4814;BME280;15375;48.540;9.268;2024-02-23T09:13:55;95587.41;;;5.70;90.45
4814;BME280;15375;48.540;9.268;2024-02-23T09:16:20;95596.81;;;5.65;91.12
4814;BME280;15375;48.540;9.268;2024-02-23T09:18:48;95604.59;;;5.63;90.79
4814;BME280;15375;48.540;9.268;2024-02-23T09:21:14;95597.06;;;5.71;91.72
4814;BME280;15375;48.540;9.268;2024-02-23T09:23:39;95593.06;;;5.75;91.68
4814;BME280;15375;48.540;9.268;2024-02-23T09:26:09;95594.53;;;5.93;89.72
4814;BME280;15375;48.540;9.268;2024-02-23T09:28:36;95602.34;;;5.91;88.28
4814;BME280;15375;48.540;9.268;2024-02-23T09:31:01;95592.38;;;5.88;87.17
4814;BME280;15375;48.540;9.268;2024-02-23T09:33:28;95614.50;;;5.99;87.99
4814;BME280;15375;48.540;9.268;2024-02-23T09:35:53;95613.19;;;6.03;86.27
4814;BME280;15375;48.540;9.268;2024-02-23T09:38:19;95597.53;;;6.11;86.12
4814;BME280;15375;48.540;9.268;2024-02-23T09:40:45;95602.41;;;6.16;85.82
4814;BME280;15375;48.540;9.268;2024-02-23T09:43:12;95604.25;;;6.19;81.64
4814;BME280;15375;48.540;9.268;2024-02-23T09:45:37;95596.00;;;6.10;82.68
4814;BME280;15375;48.540;9.268;2024-02-23T09:48:03;95615.41;;;6.21;84.27
4814;BME280;15375;48.540;9.268;2024-02-23T09:50:29;95604.06;;;6.26;83.57
4814;BME280;15375;48.540;9.268;2024-02-23T09:52:56;95608.63;;;6.41;81.86
4814;BME280;15375;48.540;9.268;2024-02-23T09:55:23;95601.97;;;6.30;80.79
4814;BME280;15375;48.540;9.268;2024-02-23T09:57:51;95594.19;;;6.44;81.59
4814;BME280;15375;48.540;9.268;2024-02-23T10:00:20;95600.16;;;6.65;81.10
4814;BME280;15375;48.540;9.268;2024-02-23T10:02:46;95597.03;;;6.54;82.66
4814;BME280;15375;48.540;9.268;2024-02-23T10:05:12;95607.22;;;6.62;81.54
4814;BME280;15375;48.540;9.268;2024-02-23T10:07:39;95612.97;;;6.64;82.02
4814;BME280;15375;48.540;9.268;2024-02-23T10:10:08;95615.47;;;6.59;79.03
4814;BME280;15375;48.540;9.268;2024-02-23T10:12:34;95619.91;;;6.78;79.55
4814;BME280;15375;48.540;9.268;2024-02-23T10:15:00;95623.28;;;6.94;82.04
4814;BME280;15375;48.540;9.268;2024-02-23T10:17:32;95612.41;;;7.20;78.74
4814;BME280;15375;48.540;9.268;2024-02-23T10:19:59;95615.22;;;7.16;77.96
4814;BME280;15375;48.540;9.268;2024-02-23T10:22:24;95638.44;;;6.79;78.30
4814;BME280;15375;48.540;9.268;2024-02-23T10:24:55;95628.16;;;6.87;78.75
4814;BME280;15375;48.540;9.268;2024-02-23T10:27:21;95607.72;;;7.07;77.38
4814;BME280;15375;48.540;9.268;2024-02-23T10:29:49;95598.88;;;6.94;77.28
4814;BME280;15375;48.540;9.268;2024-02-23T10:32:15;95595.97;;;6.89;75.59
4814;BME280;15375;48.540;9.268;2024-02-23T10:34:43;95611.66;;;6.94;77.58
4814;BME280;15375;48.540;9.268;2024-02-23T10:37:09;95621.63;;;7.10;77.91
4814;BME280;15375;48.540;9.268;2024-02-23T10:39:36;95607.72;;;7.07;77.86
4814;BME280;15375;48.540;9.268;2024-02-23T10:42:03;95621.66;;;6.72;77.46
4814;BME280;15375;48.540;9.268;2024-02-23T10:44:30;95618.19;;;6.71;77.81
4814;BME280;15375;48.540;9.268;2024-02-23T10:46:58;95608.28;;;6.65;76.59
4814;BME280;15375;48.540;9.268;2024-02-23T10:49:24;95620.56;;;6.82;78.95
4814;BME280;15375;48.540;9.268;2024-02-23T10:51:54;95609.06;;;6.78;77.52
4814;BME280;15375;48.540;9.268;2024-02-23T10:54:20;95613.38;;;7.00;76.62
4814;BME280;15375;48.540;9.268;2024-02-23T10:56:47;95602.00;;;7.05;73.92
4814;BME280;15375;48.540;9.268;2024-02-23T10:59:13;95592.78;;;7.03;72.77
4814;BME280;15375;48.540;9.268;2024-02-23T11:01:39;95592.44;;;7.14;74.65
4814;BME280;15375;48.540;9.268;2024-02-23T11:04:06;95587.13;;;7.10;72.77
4814;BME280;15375;48.540;9.268;2024-02-23T11:06:33;95607.13;;;6.78;73.94
4814;BME280;15375;48.540;9.268;2024-02-23T11:09:12;95597.13;;;7.00;74.50
4814;BME280;15375;48.540;9.268;2024-02-23T11:11:38;95594.09;;;6.98;73.29
4814;BME280;15375;48.540;9.268;2024-02-23T11:14:07;95583.13;;;7.15;75.20
4814;BME280;15375;48.540;9.268;2024-02-23T11:16:38;95581.22;;;7.37;73.53
4814;BME280;15375;48.540;9.268;2024-02-23T11:19:08;95585.41;;;7.50;72.71
4814;BME280;15375;48.540;9.268;2024-02-23T11:21:38;95581.59;;;7.26;70.58
4814;BME280;15375;48.540;9.268;2024-02-23T11:24:06;95579.09;;;7.19;71.41
4814;BME280;15375;48.540;9.268;2024-02-23T11:26:32;95590.56;;;7.36;72.50
4814;BME280;15375;48.540;9.268;2024-02-23T11:28:59;95569.56;;;7.27;72.01
4814;BME280;15375;48.540;9.268;2024-02-23T11:31:30;95577.88;;;7.33;70.66
4814;BME280;15375;48.540;9.268;2024-02-23T11:33:57;95577.72;;;7.15;73.16
4814;BME280;15375;48.540;9.268;2024-02-23T11:36:30;95588.03;;;6.94;73.71
4814;BME280;15375;48.540;9.268;2024-02-23T11:38:58;95589.78;;;6.88;73.82
4814;BME280;15375;48.540;9.268;2024-02-23T11:41:24;95583.81;;;6.93;75.16
4814;BME280;15375;48.540;9.268;2024-02-23T11:43:51;95581.19;;;7.02;76.64
4814;BME280;15375;48.540;9.268;2024-02-23T11:46:17;95595.19;;;6.88;77.26
4814;BME280;15375;48.540;9.268;2024-02-23T11:48:43;95584.09;;;7.08;75.68
4814;BME280;15375;48.540;9.268;2024-02-23T11:51:09;95591.81;;;7.10;74.89
4814;BME280;15375;48.540;9.268;2024-02-23T11:53:36;95581.53;;;6.92;75.31
4814;BME280;15375;48.540;9.268;2024-02-23T11:56:07;95583.38;;;6.82;76.10
4814;BME280;15375;48.540;9.268;2024-02-23T11:58:33;95581.53;;;6.92;76.34
4814;BME280;15375;48.540;9.268;2024-02-23T12:01:04;95571.53;;;7.14;76.73
4814;BME280;15375;48.540;9.268;2024-02-23T12:03:32;95564.13;;;7.27;75.72
4814;BME280;15375;48.540;9.268;2024-02-23T12:05:58;95569.97;;;7.26;74.15
4814;BME280;15375;48.540;9.268;2024-02-23T12:08:27;95568.09;;;7.35;74.55
4814;BME280;15375;48.540;9.268;2024-02-23T12:10:56;95553.16;;;7.31;74.45
4814;BME280;15375;48.540;9.268;2024-02-23T12:13:22;95563.03;;;7.59;74.91
4814;BME280;15375;48.540;9.268;2024-02-23T12:15:49;95558.66;;;7.40;74.26
4814;BME280;15375;48.540;9.268;2024-02-23T12:18:18;95552.50;;;7.27;75.14
4814;BME280;15375;48.540;9.268;2024-02-23T12:20:47;95546.03;;;7.24;75.10
4814;BME280;15375;48.540;9.268;2024-02-23T12:23:13;95550.59;;;7.49;75.94
4814;BME280;15375;48.540;9.268;2024-02-23T12:25:38;95563.06;;;7.46;74.80
4814;BME280;15375;48.540;9.268;2024-02-23T12:28:03;95569.91;;;7.51;75.56
4814;BME280;15375;48.540;9.268;2024-02-23T12:30:30;95560.72;;;7.70;76.59
4814;BME280;15375;48.540;9.268;2024-02-23T12:33:09;95546.03;;;7.80;73.11
4814;BME280;15375;48.540;9.268;2024-02-23T12:35:35;95551.63;;;7.64;73.75
4814;BME280;15375;48.540;9.268;2024-02-23T12:38:01;95545.97;;;7.37;74.62
4814;BME280;15375;48.540;9.268;2024-02-23T12:40:26;95544.34;;;7.39;74.04
4814;BME280;15375;48.540;9.268;2024-02-23T12:42:52;95544.50;;;7.57;74.01
4814;BME280;15375;48.540;9.268;2024-02-23T12:45:17;95546.63;;;7.84;73.69
4814;BME280;15375;48.540;9.268;2024-02-23T12:47:43;95535.53;;;7.91;71.75
4814;BME280;15375;48.540;9.268;2024-02-23T12:50:08;95545.50;;;7.94;71.01
4814;BME280;15375;48.540;9.268;2024-02-23T12:52:34;95544.81;;;8.03;71.39
4814;BME280;15375;48.540;9.268;2024-02-23T12:55:00;95536.81;;;8.08;69.10
4814;BME280;15375;48.540;9.268;2024-02-23T12:57:25;95529.56;;;8.27;68.80
4814;BME280;15375;48.540;9.268;2024-02-23T12:59:51;95541.69;;;8.35;69.45
4814;BME280;15375;48.540;9.268;2024-02-23T13:02:16;95534.47;;;8.19;67.62
4814;BME280;15375;48.540;9.268;2024-02-23T13:04:42;95537.63;;;8.40;68.24
4814;BME280;15375;48.540;9.268;2024-02-23T13:07:11;95541.63;;;8.57;67.80